Crooked Creek, Alaska
Current Conditions -  °F | °C
As of 3:16 PM on Thursday 27 Nov 2014 (Local Time) from PASL Reporting Station
Overcast Overcast  
Wind Chill: 10°   Ceiling: 600
Heat Index: 10°   Visibility: 10mi
Dew Point:   Wind: 0mph
Humidity: 67%   Direction: NA
Pressure: 30.23"   Gusts: NA
Location:  61.88°N, 158.15°W
Report Text: PASL 280016Z AUTO 00000KT 10SM OVC006 M12/M17 A3023 RMK AO1
Loading
Personal Weather Stations






























Interactive Weather Map New forecast layout! Learn more

10-Day Weather Forecast

Advertisements
Track Severe Weather on mobile